createdAt,value
2019-03-15T00:00:58.524Z,96887.61
2019-03-15T00:02:04.338Z,96887.41
2019-03-15T00:03:07.027Z,96883.29
2019-03-15T00:04:09.716Z,96889.53
2019-03-15T00:05:12.363Z,96885.66
2019-03-15T00:06:15.529Z,96887.25
2019-03-15T00:07:19.697Z,96887.25
2019-03-15T00:08:22.416Z,96873.60
2019-03-15T00:09:25.156Z,96872.94
2019-03-15T00:10:27.920Z,96891.48
2019-03-15T00:11:31.110Z,96886.70
2019-03-15T00:12:33.834Z,96886.70
2019-03-15T00:13:36.875Z,96889.40
2019-03-15T00:14:40.528Z,96895.22
2019-03-15T00:15:43.673Z,96895.22
2019-03-15T00:16:46.333Z,96890.08
2019-03-15T00:17:50.343Z,96887.95
2019-03-15T00:18:53.434Z,96888.57
2019-03-15T00:19:58.855Z,96888.57
2019-03-15T00:21:01.529Z,96892.38
2019-03-15T00:22:06.712Z,96885.39
2019-03-15T00:23:09.374Z,96888.90
2019-03-15T00:24:12.550Z,96888.90
2019-03-15T00:25:18.634Z,96894.70
2019-03-15T00:26:24.905Z,96892.46
2019-03-15T00:27:27.550Z,96890.00
2019-03-15T00:28:30.319Z,96890.00
2019-03-15T00:29:35.964Z,96878.69
2019-03-15T00:30:38.689Z,96887.89
2019-03-15T00:31:43.235Z,96893.99
2019-03-15T00:32:46.317Z,96893.99
2019-03-15T00:33:48.994Z,96889.62
2019-03-15T00:34:52.014Z,96886.63
2019-03-15T00:35:54.851Z,96900.20
2019-03-15T00:37:00.024Z,96897.89
2019-03-15T00:38:02.755Z,96899.64
2019-03-15T00:39:05.780Z,96904.58
2019-03-15T00:40:08.661Z,96904.58
2019-03-15T00:41:20.358Z,96908.63
2019-03-15T00:42:23.393Z,96898.20
2019-03-15T00:43:26.526Z,96907.56
2019-03-15T00:44:29.391Z,96912.72
2019-03-15T00:45:35.955Z,96917.01
2019-03-15T00:46:38.808Z,96913.86
2019-03-15T00:47:41.480Z,96917.98
2019-03-15T00:48:44.124Z,96918.11
2019-03-15T00:49:47.149Z,96918.11
2019-03-15T00:50:50.006Z,96929.22
2019-03-15T00:51:53.061Z,96936.45
2019-03-15T00:52:55.772Z,96936.45
2019-03-15T00:53:58.562Z,96929.63
2019-03-15T00:55:01.227Z,96925.50
2019-03-15T00:56:05.627Z,96925.50
2019-03-15T00:57:08.410Z,96929.38
2019-03-15T00:58:11.525Z,96928.61
2019-03-15T00:59:15.231Z,96928.61
2019-03-15T01:00:17.944Z,96934.78
2019-03-15T01:01:21.560Z,96933.59
2019-03-15T01:02:24.324Z,96927.95
2019-03-15T01:03:27.000Z,96932.48
2019-03-15T01:04:30.091Z,96926.07
2019-03-15T01:05:32.895Z,96935.59
2019-03-15T01:06:36.102Z,96935.59
2019-03-15T01:07:38.825Z,96936.61
2019-03-15T01:08:41.930Z,96936.61
2019-03-15T01:09:44.693Z,96928.61
2019-03-15T01:10:47.727Z,96928.28
2019-03-15T01:11:51.314Z,96932.81
2019-03-15T01:12:55.639Z,96942.70
2019-03-15T01:13:58.591Z,96940.66
2019-03-15T01:15:04.114Z,96942.95
2019-03-15T01:16:06.757Z,96942.95
2019-03-15T01:17:09.787Z,96937.87
2019-03-15T01:18:12.484Z,96943.44
2019-03-15T01:19:15.232Z,96938.29
2019-03-15T01:20:17.898Z,96949.94
2019-03-15T01:21:20.633Z,96944.70
2019-03-15T01:22:23.294Z,96948.27
2019-03-15T01:23:26.905Z,96958.73
2019-03-15T01:24:29.653Z,96958.73
2019-03-15T01:25:32.970Z,96948.09
2019-03-15T01:26:35.762Z,96948.09
2019-03-15T01:27:38.911Z,96961.98
2019-03-15T01:28:41.729Z,96958.27
2019-03-15T01:29:45.051Z,96961.20
2019-03-15T01:30:47.765Z,96961.20
2019-03-15T01:31:50.630Z,96954.91
2019-03-15T01:32:53.299Z,96957.38
2019-03-15T01:33:55.960Z,96955.98
2019-03-15T01:34:58.818Z,96947.40
2019-03-15T01:36:01.846Z,96942.55
2019-03-15T01:37:04.603Z,96934.45
2019-03-15T01:38:07.381Z,96934.45
2019-03-15T01:39:10.274Z,96943.69
2019-03-15T01:40:12.978Z,96937.80
2019-03-15T01:41:15.728Z,96930.33
2019-03-15T01:42:20.858Z,96930.33
2019-03-15T01:43:23.590Z,96923.99
2019-03-15T01:44:26.386Z,96922.72
2019-03-15T01:45:29.144Z,96911.06
2019-03-15T01:46:32.297Z,96919.45
2019-03-15T01:47:34.955Z,96923.91
2019-03-15T01:48:41.132Z,96914.80
2019-03-15T01:49:44.720Z,96916.14
2019-03-15T01:50:48.009Z,96918.84
2019-03-15T01:51:50.722Z,96926.77
2019-03-15T01:52:53.394Z,96918.06
2019-03-15T01:53:56.074Z,96925.83
2019-03-15T01:54:59.114Z,96925.83
2019-03-15T01:56:02.299Z,96933.92
2019-03-15T01:57:05.005Z,96929.55
2019-03-15T01:58:08.017Z,96925.34
2019-03-15T01:59:10.773Z,96932.00
2019-03-15T02:00:15.821Z,96930.66
2019-03-15T02:01:20.697Z,96936.20
2019-03-15T02:02:23.411Z,96930.66
2019-03-15T02:03:26.097Z,96934.61
2019-03-15T02:04:29.358Z,96934.61
2019-03-15T02:05:32.499Z,96932.41
2019-03-15T02:06:35.394Z,96931.14
2019-03-15T02:07:40.842Z,96927.33
2019-03-15T02:08:43.801Z,96931.06
2019-03-15T02:09:46.788Z,96931.06
2019-03-15T02:10:49.480Z,96928.20
2019-03-15T02:11:52.181Z,96937.16
2019-03-15T02:12:54.980Z,96930.57
2019-03-15T02:13:58.111Z,96930.57
2019-03-15T02:15:01.464Z,96931.43
2019-03-15T02:16:04.126Z,96930.41
2019-03-15T02:17:06.974Z,96926.68
2019-03-15T02:18:09.727Z,96930.16
2019-03-15T02:19:12.538Z,96932.94
2019-03-15T02:20:15.713Z,96936.20
2019-03-15T02:21:18.659Z,96937.87
2019-03-15T02:22:21.304Z,96937.87
2019-03-15T02:23:23.973Z,96930.48
2019-03-15T02:24:27.314Z,96934.77
2019-03-15T02:25:30.252Z,96934.53
2019-03-15T02:26:33.258Z,96929.14
2019-03-15T02:27:36.432Z,96934.94
2019-03-15T02:28:39.264Z,96933.59
2019-03-15T02:29:41.936Z,96936.20
2019-03-15T02:30:44.795Z,96934.08
2019-03-15T02:31:47.899Z,96925.01
2019-03-15T02:32:50.984Z,96925.01
2019-03-15T02:33:53.804Z,96938.66
2019-03-15T02:34:56.626Z,96934.70
2019-03-15T02:35:59.661Z,96938.91
2019-03-15T02:37:02.605Z,96932.41
2019-03-15T02:38:05.404Z,96933.19
2019-03-15T02:39:08.706Z,96927.63
2019-03-15T02:40:12.881Z,96927.63
2019-03-15T02:41:18.767Z,96932.65
2019-03-15T02:42:21.733Z,96929.14
2019-03-15T02:43:24.547Z,96936.37
2019-03-15T02:44:27.666Z,96932.41
2019-03-15T02:45:31.058Z,96931.14
2019-03-15T02:46:33.713Z,96927.63
2019-03-15T02:47:36.606Z,96930.12
2019-03-15T02:48:40.658Z,96930.12
2019-03-15T02:49:43.772Z,96929.55
2019-03-15T02:50:46.744Z,96932.48
2019-03-15T02:51:50.044Z,96932.25
2019-03-15T02:52:53.441Z,96939.16
2019-03-15T02:53:56.306Z,96939.16
2019-03-15T02:54:59.018Z,96938.42
2019-03-15T02:56:01.803Z,96942.09
2019-03-15T02:57:09.009Z,96943.73
2019-03-15T02:58:11.950Z,96942.38
2019-03-15T02:59:14.862Z,96942.38
2019-03-15T03:00:18.326Z,96932.41
2019-03-15T03:01:21.066Z,96926.20
2019-03-15T03:02:24.233Z,96930.89
2019-03-15T03:03:27.390Z,96931.67
2019-03-15T03:04:30.529Z,96935.80
2019-03-15T03:05:34.321Z,96938.66
2019-03-15T03:06:37.368Z,96936.05
2019-03-15T03:07:40.180Z,96930.16
2019-03-15T03:08:43.012Z,96935.34
2019-03-15T03:09:46.206Z,96944.70
2019-03-15T03:10:49.439Z,96940.66
2019-03-15T03:11:52.516Z,96932.69
2019-03-15T03:12:55.800Z,96937.80
2019-03-15T03:13:58.493Z,96938.81
2019-03-15T03:15:01.172Z,96944.99
2019-03-15T03:16:04.335Z,96934.94
2019-03-15T03:17:07.001Z,96939.52
2019-03-15T03:18:09.902Z,96937.06
2019-03-15T03:19:12.586Z,96932.00
2019-03-15T03:20:15.510Z,96935.63
2019-03-15T03:21:18.620Z,96935.63
2019-03-15T03:22:21.801Z,96934.12
2019-03-15T03:23:24.562Z,96936.53
2019-03-15T03:24:27.237Z,96928.73
2019-03-15T03:25:29.950Z,96918.98
2019-03-15T03:26:32.625Z,96918.58
2019-03-15T03:27:35.290Z,96918.58
2019-03-15T03:28:38.296Z,96929.77
2019-03-15T03:29:41.189Z,96928.51
2019-03-15T03:30:45.812Z,96928.51
2019-03-15T03:31:48.298Z,96918.75
2019-03-15T03:32:51.608Z,96915.81
2019-03-15T03:33:54.343Z,96919.12
2019-03-15T03:34:57.486Z,96919.12
2019-03-15T03:36:00.978Z,96920.33
2019-03-15T03:37:03.716Z,96924.83
2019-03-15T03:38:07.766Z,96927.61
2019-03-15T03:39:10.903Z,96928.72
2019-03-15T03:40:13.588Z,96923.80
2019-03-15T03:41:16.757Z,96922.94
2019-03-15T03:42:19.441Z,96916.58
2019-03-15T03:43:22.495Z,96928.42
2019-03-15T03:44:25.354Z,96923.32
2019-03-15T03:45:28.012Z,96917.23
2019-03-15T03:46:30.770Z,96919.06
2019-03-15T03:47:33.732Z,96922.47
2019-03-15T03:48:36.862Z,96929.45
2019-03-15T03:49:39.519Z,96919.20
2019-03-15T03:50:42.276Z,96919.76
2019-03-15T03:51:45.474Z,96923.23
2019-03-15T03:52:48.169Z,96923.23
2019-03-15T03:53:51.209Z,96919.27
2019-03-15T03:54:54.136Z,96919.27
2019-03-15T03:55:57.076Z,96910.40
2019-03-15T03:57:00.065Z,96910.40
2019-03-15T03:58:02.748Z,96915.88
2019-03-15T03:59:05.390Z,96905.26
2019-03-15T04:00:09.535Z,96914.45
2019-03-15T04:01:12.647Z,96915.02
2019-03-15T04:02:15.315Z,96910.24
2019-03-15T04:03:18.545Z,96912.54
2019-03-15T04:04:21.246Z,96912.54
2019-03-15T04:05:24.456Z,96911.36
2019-03-15T04:06:27.522Z,96906.13
2019-03-15T04:07:30.168Z,96894.56
2019-03-15T04:08:33.341Z,96901.91
2019-03-15T04:09:36.167Z,96901.91
2019-03-15T04:10:39.371Z,96895.50
2019-03-15T04:11:54.695Z,96900.97
2019-03-15T04:12:46.515Z,96900.97
2019-03-15T04:13:49.238Z,96906.44
2019-03-15T04:14:52.146Z,96906.44
2019-03-15T04:15:54.870Z,96910.41
2019-03-15T04:16:57.591Z,96910.82
2019-03-15T04:18:00.355Z,96915.02
2019-03-15T04:19:03.062Z,96911.52
2019-03-15T04:20:05.745Z,96904.23
2019-03-15T04:21:08.496Z,96893.57
2019-03-15T04:22:11.229Z,96896.66
2019-03-15T04:23:14.260Z,96885.18
2019-03-15T04:24:16.984Z,96895.41
2019-03-15T04:25:20.766Z,96904.44
2019-03-15T04:26:23.872Z,96904.44
2019-03-15T04:27:26.537Z,96905.95
2019-03-15T04:28:29.859Z,96905.95
2019-03-15T04:29:34.730Z,96904.94
2019-03-15T04:30:37.489Z,96908.58
2019-03-15T04:31:40.690Z,96908.58
2019-03-15T04:32:44.251Z,96911.84
2019-03-15T04:33:47.491Z,96918.91
2019-03-15T04:34:50.298Z,96918.91
2019-03-15T04:35:53.272Z,96908.66
2019-03-15T04:36:55.941Z,96912.41
2019-03-15T04:37:58.653Z,96912.24
2019-03-15T04:39:01.530Z,96911.19
2019-03-15T04:40:04.496Z,96911.19
2019-03-15T04:41:07.190Z,96905.71
2019-03-15T04:42:10.133Z,96902.89
2019-03-15T04:43:12.877Z,96904.45
2019-03-15T04:44:16.163Z,96902.48
2019-03-15T04:45:20.779Z,96895.58
2019-03-15T04:46:23.511Z,96897.26
2019-03-15T04:47:26.514Z,96902.08
2019-03-15T04:48:29.853Z,96900.20
2019-03-15T04:49:32.505Z,96893.66
2019-03-15T04:50:35.277Z,96896.61
2019-03-15T04:51:40.989Z,96892.02
2019-03-15T04:52:43.669Z,96888.22
2019-03-15T04:53:46.381Z,96898.20
2019-03-15T04:54:49.483Z,96895.34
2019-03-15T04:55:52.386Z,96902.66
2019-03-15T04:56:55.061Z,96902.66
2019-03-15T04:57:57.736Z,96902.17
2019-03-15T04:59:00.419Z,96910.59
2019-03-15T05:00:03.119Z,96910.59
2019-03-15T05:01:06.569Z,96907.39
2019-03-15T05:02:11.246Z,96912.86
2019-03-15T05:03:13.910Z,96913.76
2019-03-15T05:04:16.628Z,96909.80
2019-03-15T05:05:19.263Z,96905.11
2019-03-15T05:06:22.032Z,96905.11
2019-03-15T05:07:24.986Z,96908.74
2019-03-15T05:08:27.763Z,96910.09
2019-03-15T05:09:30.439Z,96910.09
2019-03-15T05:10:33.108Z,96908.36
2019-03-15T05:11:35.850Z,96909.55
2019-03-15T05:12:38.760Z,96908.66
2019-03-15T05:13:46.576Z,96908.66
2019-03-15T05:14:51.119Z,96905.34
2019-03-15T05:15:55.473Z,96908.66
2019-03-15T05:16:58.321Z,96907.31
2019-03-15T05:18:01.090Z,96909.40
2019-03-15T05:19:05.323Z,96910.17
2019-03-15T05:20:08.485Z,96897.95
2019-03-15T05:21:12.690Z,96903.05
2019-03-15T05:22:15.511Z,96899.55
2019-03-15T05:23:21.172Z,96910.82
2019-03-15T05:24:25.008Z,96898.68
2019-03-15T05:25:29.971Z,96899.46
2019-03-15T05:26:34.949Z,96901.91
2019-03-15T05:27:40.361Z,96911.36
2019-03-15T05:28:44.972Z,96907.39
2019-03-15T05:29:47.694Z,96896.77
2019-03-15T05:30:51.731Z,96897.34
2019-03-15T05:31:54.412Z,96897.34
2019-03-15T05:32:57.468Z,96889.09
2019-03-15T05:34:00.357Z,96899.95
2019-03-15T05:35:03.111Z,96897.42
2019-03-15T05:36:05.873Z,96897.42
2019-03-15T05:37:08.593Z,96899.96
2019-03-15T05:38:14.457Z,96895.51
2019-03-15T05:39:17.765Z,96905.44
2019-03-15T05:40:20.916Z,96903.06
2019-03-15T05:41:23.674Z,96901.30
2019-03-15T05:42:26.346Z,96901.30
2019-03-15T05:43:29.241Z,96906.77
2019-03-15T05:44:32.943Z,96900.36
2019-03-15T05:45:35.964Z,96905.80
2019-03-15T05:46:39.513Z,96897.17
2019-03-15T05:47:42.612Z,96894.89
2019-03-15T05:48:46.907Z,96890.76
2019-03-15T05:49:49.584Z,96887.42
2019-03-15T05:50:52.299Z,96887.81
2019-03-15T05:51:55.422Z,96887.81
2019-03-15T05:52:58.096Z,96888.91
2019-03-15T05:54:00.652Z,96887.56
2019-03-15T05:55:03.416Z,96882.08
2019-03-15T05:56:08.583Z,96882.08
2019-03-15T05:57:15.428Z,96882.17
2019-03-15T05:58:21.677Z,96870.81
2019-03-15T05:59:23.060Z,96870.59
2019-03-15T06:00:25.755Z,96870.59
2019-03-15T06:01:28.629Z,96869.46
2019-03-15T06:02:31.323Z,96869.46
2019-03-15T06:03:47.417Z,96871.62
2019-03-15T06:04:41.693Z,96871.62
2019-03-15T06:05:44.379Z,96876.29
2019-03-15T06:06:47.643Z,96875.82
2019-03-15T06:07:50.395Z,96871.77
2019-03-15T06:08:53.037Z,96866.90
2019-03-15T06:09:55.777Z,96866.03
2019-03-15T06:10:58.585Z,96857.70
2019-03-15T06:12:01.268Z,96862.31
2019-03-15T06:13:03.946Z,96861.42
2019-03-15T06:14:06.673Z,96861.42
2019-03-15T06:15:13.700Z,96864.77
2019-03-15T06:16:20.883Z,96859.46
2019-03-15T06:17:23.620Z,96861.67
2019-03-15T06:18:29.175Z,96863.44
2019-03-15T06:19:31.889Z,96863.44
2019-03-15T06:20:34.725Z,96864.70
2019-03-15T06:21:37.589Z,96853.83
2019-03-15T06:22:40.873Z,96854.60
2019-03-15T06:23:44.044Z,96847.77
2019-03-15T06:24:47.048Z,96852.95
2019-03-15T06:25:49.707Z,96842.16
2019-03-15T06:26:52.403Z,96841.92
2019-03-15T06:27:55.146Z,96838.74
2019-03-15T06:29:01.809Z,96831.67
2019-03-15T06:30:04.577Z,96830.41
2019-03-15T06:44:04.192Z,96834.10
2019-03-15T06:45:07.631Z,96834.10
2019-03-15T06:46:10.484Z,96833.38
2019-03-15T06:47:13.360Z,96832.91
2019-03-15T06:48:16.229Z,96832.91
2019-03-15T06:49:19.719Z,96835.55
2019-03-15T06:50:23.695Z,96838.12
2019-03-15T06:51:27.269Z,96823.13
2019-03-15T06:52:32.211Z,96823.28
2019-03-15T06:53:35.391Z,96828.97
2019-03-15T06:54:38.066Z,96818.33
2019-03-15T06:55:41.445Z,96820.25
2019-03-15T06:56:44.538Z,96821.20
2019-03-15T06:57:47.237Z,96821.20
2019-03-15T06:58:53.095Z,96822.47
2019-03-15T06:59:59.373Z,96828.34
2019-03-15T07:01:00.666Z,96822.47
2019-03-15T07:02:03.786Z,96822.47
2019-03-15T07:03:13.665Z,96804.06
2019-03-15T07:04:19.311Z,96798.52
2019-03-15T07:05:23.691Z,96800.64
2019-03-15T07:06:28.786Z,96807.09
2019-03-15T07:07:32.181Z,96817.55
2019-03-15T07:08:35.238Z,96805.32
2019-03-15T07:09:40.188Z,96812.30
2019-03-15T07:10:44.318Z,96822.53
2019-03-15T07:11:47.138Z,96797.67
2019-03-15T07:12:49.939Z,96798.25
2019-03-15T07:13:53.324Z,96799.92
2019-03-15T07:14:56.190Z,96806.43
2019-03-15T07:15:59.259Z,96818.98
2019-03-15T07:17:08.769Z,96808.20
2019-03-15T07:18:12.646Z,96798.66
2019-03-15T07:19:25.627Z,96798.66
2019-03-15T07:20:21.240Z,96817.22
2019-03-15T07:21:24.955Z,96817.22
2019-03-15T07:22:27.951Z,96818.81
2019-03-15T07:23:30.628Z,96807.93
2019-03-15T07:24:36.309Z,96812.06
2019-03-15T07:25:41.088Z,96818.00
2019-03-15T07:26:44.020Z,96815.22
2019-03-15T07:27:46.878Z,96808.44
2019-03-15T07:28:49.585Z,96808.44
2019-03-15T07:29:52.441Z,96822.11
2019-03-15T07:30:55.348Z,96820.25
2019-03-15T07:31:58.722Z,96823.81
2019-03-15T07:33:03.012Z,96821.45
2019-03-15T07:34:13.504Z,96826.84
2019-03-15T07:35:16.110Z,96820.97
2019-03-15T07:36:18.828Z,96813.98
2019-03-15T07:37:21.803Z,96811.28
2019-03-15T07:38:26.935Z,96817.73
2019-03-15T07:39:29.890Z,96801.45
2019-03-15T07:40:32.599Z,96809.84
2019-03-15T07:41:36.484Z,96801.21
2019-03-15T07:42:39.345Z,96806.84
2019-03-15T07:43:42.625Z,96794.89
2019-03-15T07:44:48.800Z,96794.89
2019-03-15T07:45:53.012Z,96802.23
2019-03-15T07:46:55.776Z,96802.23
2019-03-15T07:47:58.808Z,96816.44
2019-03-15T07:49:04.532Z,96800.55
2019-03-15T07:50:07.702Z,96800.85
2019-03-15T07:51:10.531Z,96799.59
2019-03-15T07:52:13.203Z,96799.59
2019-03-15T07:53:16.014Z,96815.48
2019-03-15T07:54:18.859Z,96815.06
2019-03-15T07:55:22.214Z,96815.06
2019-03-15T07:56:28.683Z,96811.20
2019-03-15T07:57:31.448Z,96816.17
2019-03-15T07:58:34.256Z,96804.36
2019-03-15T07:59:37.188Z,96808.64
2019-03-15T08:00:42.406Z,96808.64
2019-03-15T08:01:45.781Z,96798.77
2019-03-15T08:02:49.094Z,96798.77
2019-03-15T08:03:52.055Z,96805.58
2019-03-15T08:04:54.902Z,96800.84
2019-03-15T08:05:57.770Z,96794.33
2019-03-15T08:07:00.722Z,96796.80
2019-03-15T08:08:03.521Z,96801.38
2019-03-15T08:09:08.098Z,96796.22
2019-03-15T08:10:10.944Z,96786.59
2019-03-15T08:11:13.875Z,96783.25
2019-03-15T08:12:17.190Z,96777.14
2019-03-15T08:13:20.061Z,96775.36
2019-03-15T08:14:23.335Z,96779.65
2019-03-15T08:15:26.629Z,96771.25
2019-03-15T08:16:29.563Z,96770.34
2019-03-15T08:17:32.698Z,96762.86
2019-03-15T08:18:35.554Z,96765.91
2019-03-15T08:19:38.593Z,96766.72
2019-03-15T08:20:44.437Z,96766.15
2019-03-15T08:21:49.765Z,96771.31
2019-03-15T08:22:55.157Z,96760.37
2019-03-15T08:24:04.437Z,96766.95
2019-03-15T08:25:07.160Z,96766.95
2019-03-15T08:26:09.924Z,96762.29
2019-03-15T08:27:15.943Z,96772.99
2019-03-15T08:28:17.526Z,96761.72
2019-03-15T08:29:23.428Z,96772.36
2019-03-15T08:30:26.685Z,96769.86
2019-03-15T08:31:29.373Z,96768.52
2019-03-15T08:32:36.223Z,96768.52
2019-03-15T08:33:41.557Z,96767.41
2019-03-15T08:34:44.843Z,96764.94
2019-03-15T08:35:48.058Z,96764.94
2019-03-15T08:36:50.826Z,96756.59
2019-03-15T08:37:54.039Z,96763.83
2019-03-15T08:38:57.009Z,96757.61
2019-03-15T08:39:59.684Z,96762.92
2019-03-15T08:41:03.247Z,96729.25
2019-03-15T08:42:05.913Z,96758.87
2019-03-15T08:43:08.815Z,96753.16
2019-03-15T08:44:11.691Z,96753.16
2019-03-15T08:45:14.908Z,96766.97
2019-03-15T08:46:18.709Z,96739.28
2019-03-15T08:47:26.107Z,96741.78
2019-03-15T08:48:31.883Z,96736.95
2019-03-15T08:49:34.041Z,96736.95
2019-03-15T08:50:37.517Z,96742.43
2019-03-15T08:51:40.317Z,96740.27
2019-03-15T08:52:48.205Z,96735.98
2019-03-15T08:53:55.142Z,96735.98
2019-03-15T08:55:05.122Z,96737.27
2019-03-15T08:56:06.900Z,96735.48
2019-03-15T08:57:09.879Z,96736.73
2019-03-15T08:58:21.661Z,96735.69
2019-03-15T08:59:28.004Z,96732.38
2019-03-15T09:00:30.935Z,96732.38
2019-03-15T09:01:33.830Z,96736.30
2019-03-15T09:02:36.795Z,96735.41
2019-03-15T09:03:40.712Z,96730.83
2019-03-15T09:04:45.645Z,96730.83
2019-03-15T09:05:50.057Z,96732.17
2019-03-15T09:06:55.478Z,96733.77
2019-03-15T09:08:01.457Z,96729.38
2019-03-15T09:09:05.061Z,96736.03
2019-03-15T09:10:21.340Z,96732.41
2019-03-15T09:11:15.533Z,96723.36
2019-03-15T09:12:18.295Z,96724.72
2019-03-15T09:13:21.619Z,96729.38
2019-03-15T09:14:24.559Z,96725.56
2019-03-15T09:15:30.981Z,96727.48
2019-03-15T09:16:34.503Z,96723.97
2019-03-15T09:17:37.406Z,96729.71
2019-03-15T09:18:40.264Z,96729.71
2019-03-15T09:19:49.422Z,96716.67
2019-03-15T09:20:52.225Z,96721.06
2019-03-15T09:21:55.512Z,96722.66
2019-03-15T09:22:58.811Z,96722.66
2019-03-15T09:24:01.605Z,96710.08
2019-03-15T09:25:18.194Z,96710.08
2019-03-15T09:26:10.550Z,96726.55
2019-03-15T09:27:15.156Z,96717.09
2019-03-15T09:28:18.039Z,96704.70
2019-03-15T09:29:25.975Z,96708.88
2019-03-15T09:30:30.566Z,96707.19
2019-03-15T09:31:47.807Z,96707.66
2019-03-15T09:32:48.055Z,96717.25
2019-03-15T09:33:50.787Z,96717.25
2019-03-15T09:34:55.734Z,96707.11
2019-03-15T09:35:58.234Z,96707.11
2019-03-15T09:37:01.113Z,96706.43
2019-03-15T09:38:04.032Z,96706.43
2019-03-15T09:39:08.463Z,96714.91
2019-03-15T09:40:11.187Z,96714.91
2019-03-15T09:41:31.432Z,96721.11
2019-03-15T09:42:30.602Z,96713.36
2019-03-15T09:43:36.353Z,96713.36
2019-03-15T09:44:39.245Z,96705.50
2019-03-15T09:45:42.135Z,96708.30
2019-03-15T09:46:45.078Z,96702.78
2019-03-15T09:47:49.660Z,96702.78
2019-03-15T09:48:53.629Z,96712.48
2019-03-15T09:49:56.390Z,96707.30
2019-03-15T09:50:59.706Z,96699.19
2019-03-15T09:52:02.457Z,96700.66
2019-03-15T09:53:06.268Z,96705.50
2019-03-15T09:54:10.395Z,96705.50
2019-03-15T09:55:13.679Z,96701.33
2019-03-15T09:56:20.550Z,96697.05
2019-03-15T09:57:25.062Z,96703.39
2019-03-15T09:58:31.034Z,96700.89
2019-03-15T09:59:35.664Z,96702.48
2019-03-15T10:00:45.682Z,96693.83
2019-03-15T10:01:48.406Z,96694.95
2019-03-15T10:02:51.222Z,96694.95
2019-03-15T10:03:57.347Z,96694.03
2019-03-15T10:05:10.205Z,96711.64
2019-03-15T10:06:14.983Z,96711.64
2019-03-15T10:07:17.103Z,96694.83
2019-03-15T10:08:23.767Z,96695.38
2019-03-15T10:09:27.128Z,96695.38
2019-03-15T10:10:29.974Z,96685.59
2019-03-15T10:11:33.249Z,96688.50
2019-03-15T10:12:36.838Z,96689.08
2019-03-15T10:13:39.801Z,96685.48
2019-03-15T10:14:42.648Z,96693.48
2019-03-15T10:15:45.617Z,96691.67
2019-03-15T10:16:48.434Z,96673.85
2019-03-15T10:17:51.240Z,96671.95
2019-03-15T10:18:54.512Z,96677.14
2019-03-15T10:20:03.751Z,96673.51
2019-03-15T10:21:09.360Z,96671.38
2019-03-15T10:22:12.440Z,96681.86
2019-03-15T10:23:20.817Z,96680.86
2019-03-15T10:24:23.660Z,96675.56
2019-03-15T10:25:26.933Z,96675.56
2019-03-15T10:26:29.602Z,96684.11
2019-03-15T10:27:33.330Z,96687.28
2019-03-15T10:28:36.192Z,96679.70
2019-03-15T10:29:39.710Z,96672.50
2019-03-15T10:30:42.593Z,96672.50
2019-03-15T10:33:10.123Z,96681.75
2019-03-15T10:34:13.336Z,96680.05
2019-03-15T10:35:16.425Z,96681.64
2019-03-15T10:36:22.447Z,96680.05
2019-03-15T10:37:25.362Z,96680.05
2019-03-15T10:38:28.514Z,96683.77
2019-03-15T10:39:31.368Z,96680.28
2019-03-15T10:40:34.117Z,96678.92
2019-03-15T10:41:38.244Z,96678.92
2019-03-15T10:45:17.751Z,96686.47
2019-03-15T10:46:24.364Z,96686.58
2019-03-15T10:47:27.214Z,96677.98
2019-03-15T10:48:32.080Z,96677.98
2019-03-15T10:49:34.973Z,96676.16
2019-03-15T10:50:38.270Z,96669.27
2019-03-15T10:51:46.855Z,96669.27
2019-03-15T10:52:53.963Z,96682.02
2019-03-15T10:54:04.895Z,96671.84
2019-03-15T10:55:08.153Z,96671.84
2019-03-15T10:56:15.852Z,96676.34
2019-03-15T10:57:19.995Z,96676.34
2019-03-15T10:58:24.374Z,96681.65
2019-03-15T10:59:27.725Z,96678.36
2019-03-15T11:00:32.505Z,96675.88
2019-03-15T11:01:35.254Z,96675.88
2019-03-15T11:02:37.950Z,96682.64
2019-03-15T11:03:42.843Z,96682.64
2019-03-15T11:04:45.379Z,96673.38
2019-03-15T11:05:55.880Z,96669.30
2019-03-15T11:07:00.732Z,96687.55
2019-03-15T11:08:03.697Z,96687.55
2019-03-15T11:09:06.500Z,96688.03
2019-03-15T11:10:09.465Z,96684.95
2019-03-15T11:11:15.458Z,96692.86
2019-03-15T11:12:18.513Z,96685.50
2019-03-15T11:13:21.344Z,96685.50
2019-03-15T11:14:24.394Z,96677.93
2019-03-15T11:15:27.332Z,96677.93
2019-03-15T11:16:30.521Z,96683.86
2019-03-15T11:17:33.483Z,96680.91
2019-03-15T11:18:39.433Z,96676.27
2019-03-15T11:19:43.744Z,96676.44
2019-03-15T11:20:47.104Z,96662.45
2019-03-15T11:21:49.924Z,96686.94
2019-03-15T11:22:57.894Z,96670.30
2019-03-15T11:24:00.652Z,96670.37
2019-03-15T11:25:06.362Z,96662.33
2019-03-15T11:26:13.912Z,96662.33
2019-03-15T11:27:13.626Z,96671.89
2019-03-15T11:28:16.629Z,96672.76
2019-03-15T11:29:19.667Z,96672.76
2019-03-15T11:42:52.192Z,96651.84
2019-03-15T11:43:55.393Z,96669.36
2019-03-15T11:44:58.358Z,96657.58
2019-03-15T11:46:01.303Z,96683.62
2019-03-15T11:47:07.060Z,96636.92
2019-03-15T11:48:09.957Z,96661.02
2019-03-15T11:49:16.694Z,96650.02
2019-03-15T11:50:19.626Z,96653.48
2019-03-15T11:51:22.548Z,96650.67
2019-03-15T11:52:25.929Z,96633.81
2019-03-15T11:53:31.399Z,96647.57
2019-03-15T11:54:35.049Z,96645.98
2019-03-15T11:55:37.969Z,96633.11
2019-03-15T11:56:40.619Z,96663.88
2019-03-15T11:57:43.507Z,96660.60
2019-03-15T11:58:46.422Z,96656.38
2019-03-15T11:59:49.455Z,96666.04
2019-03-15T12:00:52.269Z,96666.81
2019-03-15T12:02:04.105Z,96678.27
2019-03-15T12:03:05.174Z,96669.18
2019-03-15T12:04:08.361Z,96670.31
2019-03-15T12:05:11.235Z,96675.17
2019-03-15T12:06:14.488Z,96609.42
2019-03-15T12:07:17.751Z,96665.95
2019-03-15T12:08:25.877Z,96647.78
2019-03-15T12:09:32.146Z,96674.05
2019-03-15T12:10:34.814Z,96674.05
2019-03-15T12:11:39.948Z,96678.41
2019-03-15T12:12:42.964Z,96685.37
2019-03-15T12:13:48.437Z,96698.41
2019-03-15T12:14:55.903Z,96698.41
2019-03-15T12:16:01.256Z,96661.45
2019-03-15T12:17:05.570Z,96654.94
2019-03-15T12:18:08.815Z,96654.94
2019-03-15T12:19:12.374Z,96704.82
2019-03-15T12:20:15.094Z,96704.82
2019-03-15T12:21:18.657Z,96700.37
2019-03-15T12:22:22.406Z,96700.37
2019-03-15T12:23:27.859Z,96697.11
2019-03-15T12:24:30.618Z,96670.97
2019-03-15T12:25:33.713Z,96664.77
2019-03-15T12:26:40.571Z,96664.77
2019-03-15T12:27:41.181Z,96671.47
2019-03-15T12:28:43.881Z,96682.07
2019-03-15T12:29:46.571Z,96692.72
2019-03-15T12:30:50.026Z,96678.22
2019-03-15T12:31:52.872Z,96688.59
2019-03-15T12:32:55.560Z,96666.61
2019-03-15T12:34:00.318Z,96639.34
2019-03-15T12:35:03.094Z,96681.12
2019-03-15T12:36:06.266Z,96681.12
2019-03-15T12:37:10.020Z,96690.31
2019-03-15T12:38:15.241Z,96690.31
2019-03-15T12:39:19.445Z,96664.89
2019-03-15T12:40:22.388Z,96675.16
2019-03-15T12:41:25.116Z,96675.16
2019-03-15T12:42:27.827Z,96638.58
2019-03-15T12:43:30.618Z,96656.67
2019-03-15T12:44:35.915Z,96668.55
2019-03-15T12:45:38.863Z,96648.81
2019-03-15T12:46:45.334Z,96674.31
2019-03-15T12:47:48.328Z,96666.16
2019-03-15T12:48:51.099Z,96674.09
2019-03-15T12:49:54.482Z,96606.88
2019-03-15T12:51:04.721Z,96665.07
2019-03-15T12:52:12.112Z,96627.64
2019-03-15T12:53:15.153Z,96655.70
2019-03-15T12:54:20.564Z,96655.70
2019-03-15T12:55:26.255Z,96681.76
2019-03-15T12:56:29.106Z,96667.03
2019-03-15T12:57:32.021Z,96667.03